LAN063 SCEL-SCTE
Flight info
| Callsign | LAN063 |
|---|---|
| Flight time | 1h 20m |
| Altitude | 37000 |
| Route | ANGOD6C ANGOD UQ803 ERUKA DCT SARTO SARTO2A |
| Aircraft | A320/M-SDE3FGHIRWY/LB1 |
Departure
| Time | 2026-04-23 02:01 |
|---|---|
| Airport | Comodoro Arturo Merino Benítez International Airport (SCEL) |
Arrival
| Time | 2026-04-23 03:22 |
|---|---|
| Airport | El Tepual International Airport (SCTE) |
| Time | Latitude | Longitude | Altitude | Speed | Heading |
|---|---|---|---|---|---|
| 2026-04-23 01:42 | -33.39735 | -70.79784 | 1565 ft | 0 kts | 357° |
| 2026-04-23 01:47 | -33.39742 | -70.79783 | 1565 ft | 2 kts | 356° |
| 2026-04-23 01:47 | -33.39755 | -70.79782 | 1565 ft | 2 kts | 355° |
| 2026-04-23 01:47 | -33.39769 | -70.79781 | 1565 ft | 2 kts | 356° |
| 2026-04-23 01:48 | -33.39782 | -70.79780 | 1565 ft | 2 kts | 357° |
| 2026-04-23 01:48 | -33.39795 | -70.79779 | 1565 ft | 2 kts | 0° |
| 2026-04-23 01:48 | -33.39807 | -70.79780 | 1565 ft | 1 kts | 353° |
| 2026-04-23 01:48 | -33.39813 | -70.79780 | 1565 ft | 1 kts | 318° |
| 2026-04-23 01:49 | -33.39818 | -70.79775 | 1565 ft | 1 kts | 287° |
| 2026-04-23 01:49 | -33.39820 | -70.79769 | 1565 ft | 1 kts | 275° |
| 2026-04-23 01:49 | -33.39820 | -70.79763 | 1565 ft | 1 kts | 271° |
| 2026-04-23 01:49 | -33.39820 | -70.79756 | 1565 ft | 1 kts | 269° |
| 2026-04-23 01:50 | -33.39820 | -70.79750 | 1565 ft | 1 kts | 268° |
| 2026-04-23 01:50 | -33.39820 | -70.79748 | 1565 ft | 0 kts | 268° |
| 2026-04-23 01:51 | -33.39820 | -70.79750 | 1565 ft | 1 kts | 268° |
| 2026-04-23 01:51 | -33.39821 | -70.79785 | 1565 ft | 7 kts | 268° |
| 2026-04-23 01:52 | -33.39824 | -70.79847 | 1565 ft | 7 kts | 265° |
| 2026-04-23 01:52 | -33.39836 | -70.79874 | 1565 ft | 2 kts | 238° |
| 2026-04-23 01:52 | -33.39843 | -70.79903 | 1565 ft | 6 kts | 265° |
| 2026-04-23 01:52 | -33.39846 | -70.79970 | 1565 ft | 10 kts | 269° |
| 2026-04-23 01:53 | -33.39838 | -70.80018 | 1566 ft | 7 kts | 307° |
| 2026-04-23 01:53 | -33.39787 | -70.80027 | 1566 ft | 8 kts | 359° |
| 2026-04-23 01:53 | -33.39702 | -70.80028 | 1566 ft | 10 kts | 355° |
| 2026-04-23 01:53 | -33.39627 | -70.80035 | 1566 ft | 12 kts | 355° |
| 2026-04-23 01:54 | -33.39571 | -70.80040 | 1566 ft | 12 kts | 356° |
| 2026-04-23 01:54 | -33.39479 | -70.80044 | 1566 ft | 14 kts | 357° |
| 2026-04-23 01:54 | -33.39372 | -70.80051 | 1566 ft | 17 kts | 357° |
| 2026-04-23 01:54 | -33.39240 | -70.80057 | 1566 ft | 20 kts | 358° |
| 2026-04-23 01:55 | -33.39085 | -70.80067 | 1566 ft | 23 kts | 357° |
| 2026-04-23 01:55 | -33.38922 | -70.80077 | 1567 ft | 24 kts | 358° |
| 2026-04-23 01:55 | -33.38748 | -70.80087 | 1567 ft | 26 kts | 357° |
| 2026-04-23 01:55 | -33.38568 | -70.80096 | 1567 ft | 23 kts | 357° |
| 2026-04-23 01:56 | -33.38429 | -70.80103 | 1566 ft | 18 kts | 357° |
| 2026-04-23 01:56 | -33.38333 | -70.80108 | 1566 ft | 16 kts | 358° |
| 2026-04-23 01:56 | -33.38200 | -70.80115 | 1566 ft | 20 kts | 357° |
| 2026-04-23 01:56 | -33.38067 | -70.80122 | 1566 ft | 20 kts | 357° |
| 2026-04-23 01:57 | -33.37933 | -70.80130 | 1566 ft | 24 kts | 357° |
| 2026-04-23 01:57 | -33.37745 | -70.80140 | 1566 ft | 28 kts | 357° |
| 2026-04-23 01:57 | -33.37561 | -70.80150 | 1566 ft | 26 kts | 357° |
| 2026-04-23 01:57 | -33.37382 | -70.80160 | 1567 ft | 27 kts | 356° |
| 2026-04-23 01:58 | -33.37229 | -70.80171 | 1567 ft | 18 kts | 358° |
| 2026-04-23 01:58 | -33.37141 | -70.80182 | 1579 ft | 7 kts | 335° |
| 2026-04-23 01:58 | -33.37111 | -70.80229 | 1581 ft | 7 kts | 292° |
| 2026-04-23 01:58 | -33.37108 | -70.80244 | 1581 ft | 0 kts | 286° |
| 2026-04-23 01:59 | -33.37101 | -70.80279 | 1582 ft | 8 kts | 276° |
| 2026-04-23 02:00 | -33.37114 | -70.80326 | 1584 ft | 4 kts | 242° |
| 2026-04-23 02:00 | -33.37132 | -70.80357 | 1584 ft | 7 kts | 229° |
| 2026-04-23 02:00 | -33.37203 | -70.80375 | 1583 ft | 11 kts | 177° |
| 2026-04-23 02:00 | -33.37347 | -70.80366 | 1583 ft | 45 kts | 178° |
| 2026-04-23 02:01 | -33.37879 | -70.80338 | 1582 ft | 105 kts | 178° |
| 2026-04-23 02:01 | -33.38772 | -70.80290 | 1585 ft | 150 kts | 178° |
| 2026-04-23 02:01 | -33.39937 | -70.80227 | 1704 ft | 177 kts | 176° |
| 2026-04-23 02:01 | -33.41158 | -70.80156 | 2296 ft | 177 kts | 175° |
| 2026-04-23 02:02 | -33.42383 | -70.80075 | 2918 ft | 179 kts | 176° |
| 2026-04-23 02:02 | -33.43672 | -70.79983 | 3316 ft | 191 kts | 176° |
| 2026-04-23 02:02 | -33.45033 | -70.79894 | 3766 ft | 201 kts | 176° |
| 2026-04-23 02:02 | -33.46457 | -70.79827 | 4259 ft | 209 kts | 177° |
| 2026-04-23 02:03 | -33.47919 | -70.79768 | 4851 ft | 213 kts | 177° |
| 2026-04-23 02:03 | -33.49479 | -70.79695 | 5143 ft | 236 kts | 176° |
| 2026-04-23 02:03 | -33.51203 | -70.79608 | 5470 ft | 260 kts | 177° |
| 2026-04-23 02:03 | -33.53071 | -70.79512 | 6038 ft | 273 kts | 177° |
| 2026-04-23 02:04 | -33.54962 | -70.79412 | 6786 ft | 278 kts | 177° |
| 2026-04-23 02:04 | -33.56914 | -70.79306 | 7533 ft | 283 kts | 177° |
| 2026-04-23 02:04 | -33.58898 | -70.79289 | 8285 ft | 287 kts | 186° |
| 2026-04-23 02:04 | -33.60864 | -70.79772 | 9014 ft | 291 kts | 195° |
| 2026-04-23 02:05 | -33.62837 | -70.80395 | 9772 ft | 295 kts | 195° |
| 2026-04-23 02:05 | -33.64841 | -70.81021 | 10445 ft | 302 kts | 195° |
| 2026-04-23 02:05 | -33.66952 | -70.81680 | 10634 ft | 325 kts | 195° |
| 2026-04-23 02:05 | -33.69164 | -70.82371 | 11033 ft | 338 kts | 195° |
| 2026-04-23 02:06 | -33.71452 | -70.83086 | 11653 ft | 342 kts | 195° |
| 2026-04-23 02:06 | -33.73768 | -70.83808 | 12328 ft | 345 kts | 196° |
| 2026-04-23 02:06 | -33.76106 | -70.84535 | 12999 ft | 349 kts | 196° |
| 2026-04-23 02:06 | -33.78463 | -70.85268 | 13667 ft | 352 kts | 196° |
| 2026-04-23 02:07 | -33.80845 | -70.86008 | 14291 ft | 355 kts | 196° |
| 2026-04-23 02:07 | -33.83243 | -70.86752 | 14888 ft | 357 kts | 196° |
| 2026-04-23 02:07 | -33.85653 | -70.87500 | 15485 ft | 359 kts | 197° |
| 2026-04-23 02:07 | -33.88082 | -70.88255 | 16047 ft | 362 kts | 197° |
| 2026-04-23 02:08 | -33.90490 | -70.89010 | 16623 ft | 364 kts | 197° |
| 2026-04-23 02:08 | -33.92950 | -70.89783 | 17214 ft | 366 kts | 197° |
| 2026-04-23 02:08 | -33.95429 | -70.90564 | 17779 ft | 369 kts | 197° |
| 2026-04-23 02:08 | -33.97920 | -70.91345 | 18321 ft | 372 kts | 197° |
| 2026-04-23 02:09 | -34.00433 | -70.92129 | 18866 ft | 375 kts | 197° |
| 2026-04-23 02:09 | -34.02969 | -70.92905 | 19395 ft | 377 kts | 197° |
| 2026-04-23 02:09 | -34.05534 | -70.93630 | 19934 ft | 380 kts | 196° |
| 2026-04-23 02:09 | -34.08122 | -70.94324 | 20507 ft | 382 kts | 195° |
| 2026-04-23 02:10 | -34.10688 | -70.94998 | 21053 ft | 384 kts | 195° |
| 2026-04-23 02:10 | -34.13311 | -70.95688 | 21588 ft | 387 kts | 195° |
| 2026-04-23 02:10 | -34.15945 | -70.96388 | 22117 ft | 389 kts | 196° |
| 2026-04-23 02:10 | -34.18596 | -70.97104 | 22635 ft | 392 kts | 196° |
| 2026-04-23 02:11 | -34.21264 | -70.97827 | 23158 ft | 394 kts | 196° |
| 2026-04-23 02:11 | -34.23950 | -70.98558 | 23694 ft | 397 kts | 196° |
| 2026-04-23 02:11 | -34.26647 | -70.99296 | 24125 ft | 399 kts | 196° |
| 2026-04-23 02:11 | -34.29362 | -71.00038 | 24537 ft | 401 kts | 196° |
| 2026-04-23 02:12 | -34.32096 | -71.00785 | 24936 ft | 404 kts | 196° |
| 2026-04-23 02:12 | -34.34792 | -71.01525 | 25328 ft | 406 kts | 196° |
| 2026-04-23 02:12 | -34.37572 | -71.02289 | 25709 ft | 409 kts | 197° |
| 2026-04-23 02:12 | -34.40353 | -71.03052 | 26082 ft | 411 kts | 197° |
| 2026-04-23 02:13 | -34.43155 | -71.03818 | 26442 ft | 414 kts | 197° |
| 2026-04-23 02:13 | -34.45974 | -71.04589 | 26809 ft | 416 kts | 197° |
| 2026-04-23 02:13 | -34.48807 | -71.05367 | 27162 ft | 419 kts | 197° |
| 2026-04-23 02:13 | -34.51655 | -71.06150 | 27512 ft | 421 kts | 197° |
| 2026-04-23 02:14 | -34.54523 | -71.06937 | 27868 ft | 423 kts | 197° |
| 2026-04-23 02:14 | -34.57367 | -71.07716 | 28210 ft | 425 kts | 197° |
| 2026-04-23 02:14 | -34.60259 | -71.08507 | 28558 ft | 428 kts | 197° |
| 2026-04-23 02:14 | -34.63175 | -71.09303 | 28897 ft | 430 kts | 197° |
| 2026-04-23 02:15 | -34.69047 | -71.10916 | 29572 ft | 435 kts | 197° |
| 2026-04-23 02:15 | -34.72004 | -71.11736 | 29915 ft | 437 kts | 197° |
| 2026-04-23 02:15 | -34.74978 | -71.12546 | 30242 ft | 440 kts | 196° |
| 2026-04-23 02:16 | -34.77967 | -71.13304 | 30522 ft | 443 kts | 196° |
| 2026-04-23 02:16 | -34.81014 | -71.14034 | 30813 ft | 445 kts | 195° |
| 2026-04-23 02:16 | -34.84006 | -71.14731 | 31217 ft | 443 kts | 195° |
| 2026-04-23 02:16 | -34.87028 | -71.15433 | 31624 ft | 442 kts | 195° |
| 2026-04-23 02:17 | -34.90049 | -71.16141 | 32021 ft | 441 kts | 196° |
| 2026-04-23 02:17 | -34.93055 | -71.16858 | 32431 ft | 440 kts | 196° |
| 2026-04-23 02:17 | -34.96055 | -71.17586 | 32828 ft | 439 kts | 197° |
| 2026-04-23 02:17 | -34.99052 | -71.18324 | 33227 ft | 439 kts | 197° |
| 2026-04-23 02:18 | -35.02041 | -71.19065 | 33622 ft | 438 kts | 197° |
| 2026-04-23 02:18 | -35.05026 | -71.19802 | 34023 ft | 438 kts | 197° |
| 2026-04-23 02:18 | -35.07972 | -71.20525 | 34372 ft | 437 kts | 197° |
| 2026-04-23 02:18 | -35.10951 | -71.21251 | 34675 ft | 437 kts | 197° |
| 2026-04-23 02:19 | -35.13935 | -71.21977 | 34954 ft | 437 kts | 197° |
| 2026-04-23 02:19 | -35.16912 | -71.22701 | 35241 ft | 437 kts | 198° |
| 2026-04-23 02:19 | -35.19896 | -71.23426 | 35516 ft | 437 kts | 198° |
| 2026-04-23 02:19 | -35.22876 | -71.24153 | 35782 ft | 437 kts | 198° |
| 2026-04-23 02:20 | -35.25864 | -71.24885 | 36050 ft | 437 kts | 198° |
| 2026-04-23 02:20 | -35.28843 | -71.25619 | 36307 ft | 437 kts | 198° |
| 2026-04-23 02:20 | -35.31781 | -71.26347 | 36559 ft | 437 kts | 198° |
| 2026-04-23 02:20 | -35.34761 | -71.27086 | 36798 ft | 437 kts | 198° |
| 2026-04-23 02:21 | -35.37742 | -71.27824 | 37035 ft | 437 kts | 198° |
| 2026-04-23 02:21 | -35.40723 | -71.28559 | 37216 ft | 438 kts | 198° |
| 2026-04-23 02:21 | -35.43717 | -71.29296 | 37247 ft | 439 kts | 198° |
| 2026-04-23 02:22 | -35.49708 | -71.30765 | 37246 ft | 439 kts | 198° |
| 2026-04-23 02:22 | -35.55690 | -71.32238 | 37246 ft | 438 kts | 198° |
| 2026-04-23 02:23 | -35.61675 | -71.33733 | 37250 ft | 446 kts | 198° |
| 2026-04-23 02:23 | -35.67784 | -71.35260 | 37247 ft | 449 kts | 198° |
| 2026-04-23 02:24 | -35.73910 | -71.36779 | 37255 ft | 449 kts | 198° |
| 2026-04-23 02:24 | -35.80040 | -71.38306 | 37263 ft | 449 kts | 198° |
| 2026-04-23 02:25 | -35.86130 | -71.39824 | 37265 ft | 450 kts | 198° |
| 2026-04-23 02:25 | -35.92256 | -71.41359 | 37275 ft | 450 kts | 198° |
| 2026-04-23 02:26 | -35.98390 | -71.42894 | 37277 ft | 449 kts | 198° |
| 2026-04-23 02:26 | -36.04519 | -71.44428 | 37287 ft | 449 kts | 198° |
| 2026-04-23 02:27 | -36.10640 | -71.45961 | 37281 ft | 449 kts | 198° |
| 2026-04-23 02:27 | -36.16750 | -71.47495 | 37283 ft | 448 kts | 198° |
| 2026-04-23 02:28 | -36.22852 | -71.49032 | 37284 ft | 447 kts | 198° |
| 2026-04-23 02:28 | -36.28907 | -71.50567 | 37283 ft | 447 kts | 198° |
| 2026-04-23 02:29 | -36.35002 | -71.52106 | 37288 ft | 447 kts | 198° |
| 2026-04-23 02:29 | -36.41097 | -71.53639 | 37294 ft | 447 kts | 198° |
| 2026-04-23 02:30 | -36.47187 | -71.55187 | 37300 ft | 447 kts | 198° |
| 2026-04-23 02:30 | -36.53227 | -71.56725 | 37303 ft | 446 kts | 198° |
| 2026-04-23 02:31 | -36.59304 | -71.58269 | 37302 ft | 445 kts | 198° |
| 2026-04-23 02:31 | -36.65374 | -71.59811 | 37303 ft | 445 kts | 198° |
| 2026-04-23 02:32 | -36.71434 | -71.61355 | 37305 ft | 444 kts | 198° |
| 2026-04-23 02:32 | -36.77449 | -71.62890 | 37307 ft | 444 kts | 198° |
| 2026-04-23 02:33 | -36.83502 | -71.64445 | 37312 ft | 444 kts | 198° |
| 2026-04-23 02:33 | -36.89553 | -71.66004 | 37317 ft | 444 kts | 198° |
| 2026-04-23 02:34 | -36.95599 | -71.67552 | 37317 ft | 444 kts | 198° |
| 2026-04-23 02:34 | -37.01606 | -71.69092 | 37324 ft | 443 kts | 198° |
| 2026-04-23 02:35 | -37.07643 | -71.70659 | 37329 ft | 443 kts | 198° |
| 2026-04-23 02:35 | -37.13674 | -71.72214 | 37326 ft | 442 kts | 198° |
| 2026-04-23 02:36 | -37.19697 | -71.73763 | 37330 ft | 442 kts | 197° |
| 2026-04-23 02:36 | -37.25714 | -71.75322 | 37330 ft | 442 kts | 198° |
| 2026-04-23 02:37 | -37.31728 | -71.76892 | 37332 ft | 441 kts | 197° |
| 2026-04-23 02:37 | -37.37698 | -71.78440 | 37335 ft | 441 kts | 197° |
| 2026-04-23 02:38 | -37.43705 | -71.79995 | 37339 ft | 440 kts | 197° |
| 2026-04-23 02:38 | -37.49702 | -71.81566 | 37336 ft | 440 kts | 197° |
| 2026-04-23 02:39 | -37.55651 | -71.83124 | 37346 ft | 440 kts | 197° |
| 2026-04-23 02:39 | -37.61645 | -71.84689 | 37344 ft | 440 kts | 197° |
| 2026-04-23 02:40 | -37.67631 | -71.86253 | 37356 ft | 439 kts | 197° |
| 2026-04-23 02:40 | -37.73600 | -71.87839 | 37352 ft | 438 kts | 198° |
| 2026-04-23 02:41 | -37.79473 | -71.89632 | 37356 ft | 436 kts | 200° |
| 2026-04-23 02:41 | -37.85355 | -71.91540 | 37361 ft | 436 kts | 200° |
| 2026-04-23 02:42 | -37.91237 | -71.93418 | 37361 ft | 436 kts | 199° |
| 2026-04-23 02:42 | -37.97130 | -71.95255 | 37368 ft | 436 kts | 199° |
| 2026-04-23 02:43 | -38.02977 | -71.97071 | 37365 ft | 436 kts | 199° |
| 2026-04-23 02:43 | -38.08864 | -71.98913 | 37370 ft | 435 kts | 199° |
| 2026-04-23 02:44 | -38.14743 | -72.00764 | 37372 ft | 435 kts | 199° |
| 2026-04-23 02:44 | -38.20616 | -72.02610 | 37373 ft | 435 kts | 199° |
| 2026-04-23 02:45 | -38.26489 | -72.04466 | 37374 ft | 435 kts | 199° |
| 2026-04-23 02:45 | -38.32315 | -72.06307 | 37377 ft | 434 kts | 199° |
| 2026-04-23 02:46 | -38.38182 | -72.08163 | 37374 ft | 434 kts | 199° |
| 2026-04-23 02:46 | -38.44043 | -72.10020 | 37374 ft | 434 kts | 199° |
| 2026-04-23 02:47 | -38.49905 | -72.11880 | 37372 ft | 434 kts | 199° |
| 2026-04-23 02:47 | -38.55720 | -72.13726 | 37370 ft | 433 kts | 199° |
| 2026-04-23 02:48 | -38.61572 | -72.15599 | 37371 ft | 433 kts | 199° |
| 2026-04-23 02:48 | -38.67415 | -72.17469 | 37367 ft | 433 kts | 199° |
| 2026-04-23 02:49 | -38.73206 | -72.19325 | 37364 ft | 433 kts | 199° |
| 2026-04-23 02:49 | -38.79048 | -72.21198 | 37368 ft | 432 kts | 199° |
| 2026-04-23 02:50 | -38.84881 | -72.23070 | 37364 ft | 432 kts | 199° |
| 2026-04-23 02:50 | -38.90713 | -72.24944 | 37366 ft | 432 kts | 199° |
| 2026-04-23 02:51 | -38.96538 | -72.26815 | 37365 ft | 432 kts | 199° |
| 2026-04-23 02:51 | -39.02363 | -72.28690 | 37367 ft | 431 kts | 199° |
| 2026-04-23 02:52 | -39.08181 | -72.30575 | 37364 ft | 431 kts | 199° |
| 2026-04-23 02:52 | -39.13957 | -72.32446 | 37366 ft | 431 kts | 199° |
| 2026-04-23 02:53 | -39.19775 | -72.34328 | 37367 ft | 431 kts | 199° |
| 2026-04-23 02:53 | -39.25585 | -72.36213 | 37370 ft | 431 kts | 199° |
| 2026-04-23 02:54 | -39.31409 | -72.38102 | 37370 ft | 434 kts | 199° |
| 2026-04-23 02:54 | -39.37288 | -72.40014 | 37377 ft | 435 kts | 199° |
| 2026-04-23 02:55 | -39.43112 | -72.41917 | 37376 ft | 434 kts | 199° |
| 2026-04-23 02:55 | -39.48986 | -72.43839 | 37377 ft | 439 kts | 199° |
| 2026-04-23 02:56 | -39.54976 | -72.45811 | 37341 ft | 448 kts | 199° |
| 2026-04-23 02:56 | -39.61026 | -72.47797 | 37340 ft | 452 kts | 199° |
| 2026-04-23 02:56 | -39.64074 | -72.48788 | 37335 ft | 439 kts | 199° |
| 2026-04-23 02:57 | -39.66974 | -72.49729 | 37338 ft | 433 kts | 199° |
| 2026-04-23 02:57 | -39.72791 | -72.51640 | 37338 ft | 430 kts | 199° |
| 2026-04-23 02:58 | -39.78593 | -72.53551 | 37337 ft | 430 kts | 199° |
| 2026-04-23 02:58 | -39.84402 | -72.55416 | 37337 ft | 430 kts | 198° |
| 2026-04-23 02:59 | -39.90209 | -72.57273 | 37338 ft | 430 kts | 198° |
| 2026-04-23 02:59 | -39.95965 | -72.59130 | 36759 ft | 427 kts | 198° |
| 2026-04-23 02:59 | -39.98845 | -72.60059 | 36156 ft | 427 kts | 198° |
| 2026-04-23 03:00 | -40.01734 | -72.60996 | 35530 ft | 428 kts | 198° |
| 2026-04-23 03:00 | -40.04638 | -72.61941 | 34788 ft | 432 kts | 197° |
| 2026-04-23 03:00 | -40.07561 | -72.62897 | 33942 ft | 436 kts | 197° |
| 2026-04-23 03:00 | -40.10508 | -72.63859 | 33257 ft | 435 kts | 197° |
| 2026-04-23 03:01 | -40.13424 | -72.64803 | 32829 ft | 429 kts | 197° |
| 2026-04-23 03:01 | -40.16309 | -72.65737 | 32312 ft | 426 kts | 197° |
| 2026-04-23 03:01 | -40.19134 | -72.66656 | 31815 ft | 422 kts | 197° |
| 2026-04-23 03:01 | -40.21970 | -72.67580 | 31303 ft | 419 kts | 197° |
| 2026-04-23 03:02 | -40.24788 | -72.68497 | 30802 ft | 416 kts | 197° |
| 2026-04-23 03:02 | -40.27587 | -72.69411 | 30285 ft | 413 kts | 197° |
| 2026-04-23 03:02 | -40.30363 | -72.70318 | 29747 ft | 409 kts | 198° |
| 2026-04-23 03:02 | -40.33107 | -72.71218 | 29261 ft | 405 kts | 198° |
| 2026-04-23 03:03 | -40.35827 | -72.72111 | 28769 ft | 401 kts | 198° |
| 2026-04-23 03:03 | -40.38518 | -72.72994 | 28291 ft | 397 kts | 198° |
| 2026-04-23 03:03 | -40.41146 | -72.73856 | 27825 ft | 393 kts | 198° |
| 2026-04-23 03:03 | -40.43789 | -72.74725 | 27361 ft | 390 kts | 198° |
| 2026-04-23 03:04 | -40.46412 | -72.75587 | 26910 ft | 387 kts | 199° |
| 2026-04-23 03:04 | -40.49019 | -72.76441 | 26466 ft | 385 kts | 199° |
| 2026-04-23 03:04 | -40.51607 | -72.77290 | 26033 ft | 382 kts | 199° |
| 2026-04-23 03:04 | -40.54203 | -72.78149 | 25600 ft | 394 kts | 199° |
| 2026-04-23 03:05 | -40.56964 | -72.79078 | 25155 ft | 425 kts | 199° |
| 2026-04-23 03:05 | -40.59929 | -72.80082 | 24697 ft | 454 kts | 199° |
| 2026-04-23 03:05 | -40.63070 | -72.81137 | 24223 ft | 472 kts | 199° |
| 2026-04-23 03:05 | -40.66220 | -72.82169 | 23767 ft | 456 kts | 198° |
| 2026-04-23 03:06 | -40.69191 | -72.83115 | 23407 ft | 423 kts | 199° |
| 2026-04-23 03:06 | -40.71921 | -72.83978 | 23043 ft | 397 kts | 199° |
| 2026-04-23 03:06 | -40.74561 | -72.84831 | 22280 ft | 385 kts | 200° |
| 2026-04-23 03:06 | -40.77119 | -72.85681 | 21649 ft | 373 kts | 200° |
| 2026-04-23 03:07 | -40.79605 | -72.86514 | 21257 ft | 367 kts | 200° |
| 2026-04-23 03:07 | -40.82066 | -72.87342 | 20809 ft | 364 kts | 200° |
| 2026-04-23 03:07 | -40.84510 | -72.88164 | 20355 ft | 361 kts | 200° |
| 2026-04-23 03:07 | -40.86941 | -72.88982 | 19903 ft | 359 kts | 200° |
| 2026-04-23 03:08 | -40.89355 | -72.89790 | 19437 ft | 357 kts | 200° |
| 2026-04-23 03:08 | -40.91725 | -72.90581 | 18990 ft | 354 kts | 200° |
| 2026-04-23 03:08 | -40.94109 | -72.91369 | 18523 ft | 353 kts | 199° |
| 2026-04-23 03:08 | -40.96557 | -72.91812 | 17977 ft | 356 kts | 192° |
| 2026-04-23 03:09 | -40.99013 | -72.92116 | 17500 ft | 353 kts | 192° |
| 2026-04-23 03:09 | -41.01450 | -72.92416 | 17026 ft | 350 kts | 192° |
| 2026-04-23 03:09 | -41.03862 | -72.92710 | 16538 ft | 347 kts | 192° |
| 2026-04-23 03:09 | -41.06260 | -72.93005 | 16051 ft | 345 kts | 191° |
| 2026-04-23 03:10 | -41.08642 | -72.93303 | 15578 ft | 342 kts | 191° |
| 2026-04-23 03:10 | -41.10969 | -72.93595 | 15105 ft | 340 kts | 191° |
| 2026-04-23 03:10 | -41.13320 | -72.93889 | 14633 ft | 338 kts | 191° |
| 2026-04-23 03:10 | -41.15654 | -72.94179 | 14166 ft | 336 kts | 191° |
| 2026-04-23 03:11 | -41.17978 | -72.94470 | 13657 ft | 334 kts | 191° |
| 2026-04-23 03:11 | -41.20278 | -72.94756 | 13195 ft | 331 kts | 191° |
| 2026-04-23 03:11 | -41.22557 | -72.95038 | 12736 ft | 327 kts | 191° |
| 2026-04-23 03:11 | -41.24815 | -72.95317 | 12287 ft | 324 kts | 191° |
| 2026-04-23 03:12 | -41.27051 | -72.95571 | 11847 ft | 322 kts | 189° |
| 2026-04-23 03:12 | -41.29254 | -72.95709 | 11402 ft | 321 kts | 187° |
| 2026-04-23 03:12 | -41.31483 | -72.95777 | 10960 ft | 319 kts | 186° |
| 2026-04-23 03:12 | -41.33718 | -72.95820 | 10295 ft | 325 kts | 186° |
| 2026-04-23 03:13 | -41.35918 | -72.95856 | 10096 ft | 304 kts | 186° |
| 2026-04-23 03:13 | -41.37958 | -72.95892 | 9834 ft | 285 kts | 186° |
| 2026-04-23 03:13 | -41.39911 | -72.95942 | 9457 ft | 274 kts | 187° |
| 2026-04-23 03:13 | -41.41832 | -72.96007 | 9144 ft | 278 kts | 187° |
| 2026-04-23 03:14 | -41.43757 | -72.96079 | 8632 ft | 277 kts | 187° |
| 2026-04-23 03:14 | -41.45706 | -72.96154 | 8145 ft | 282 kts | 186° |
| 2026-04-23 03:14 | -41.47661 | -72.96225 | 7687 ft | 284 kts | 186° |
| 2026-04-23 03:14 | -41.49608 | -72.96293 | 7418 ft | 281 kts | 186° |
| 2026-04-23 03:15 | -41.51561 | -72.96357 | 7077 ft | 280 kts | 186° |
| 2026-04-23 03:15 | -41.53509 | -72.96416 | 6727 ft | 279 kts | 186° |
| 2026-04-23 03:15 | -41.55440 | -72.96474 | 6091 ft | 277 kts | 186° |
| 2026-04-23 03:15 | -41.57361 | -72.96535 | 5471 ft | 276 kts | 186° |
| 2026-04-23 03:16 | -41.59240 | -72.96809 | 4818 ft | 268 kts | 203° |
| 2026-04-23 03:16 | -41.60764 | -72.98083 | 4310 ft | 251 kts | 232° |
| 2026-04-23 03:16 | -41.61821 | -73.01894 | 4013 ft | 204 kts | 274° |
| 2026-04-23 03:17 | -41.61783 | -73.03705 | 3910 ft | 187 kts | 273° |
| 2026-04-23 03:17 | -41.61751 | -73.05406 | 3844 ft | 175 kts | 274° |
| 2026-04-23 03:17 | -41.61723 | -73.06951 | 3744 ft | 158 kts | 274° |
| 2026-04-23 03:17 | -41.61624 | -73.08339 | 3640 ft | 144 kts | 290° |
| 2026-04-23 03:18 | -41.61075 | -73.09427 | 3588 ft | 144 kts | 318° |
| 2026-04-23 03:18 | -41.60143 | -73.09962 | 3367 ft | 153 kts | 350° |
| 2026-04-23 03:18 | -41.59073 | -73.09938 | 3147 ft | 154 kts | 355° |
| 2026-04-23 03:18 | -41.58024 | -73.09899 | 2938 ft | 152 kts | 355° |
| 2026-04-23 03:19 | -41.56969 | -73.09861 | 2725 ft | 151 kts | 355° |
| 2026-04-23 03:19 | -41.55925 | -73.09824 | 2518 ft | 149 kts | 356° |
| 2026-04-23 03:19 | -41.54894 | -73.09787 | 2312 ft | 147 kts | 357° |
| 2026-04-23 03:19 | -41.53881 | -73.09751 | 2114 ft | 144 kts | 357° |
| 2026-04-23 03:20 | -41.52895 | -73.09715 | 1914 ft | 139 kts | 358° |
| 2026-04-23 03:20 | -41.51934 | -73.09681 | 1732 ft | 138 kts | 359° |
| 2026-04-23 03:20 | -41.50976 | -73.09648 | 1537 ft | 138 kts | 359° |
| 2026-04-23 03:20 | -41.50020 | -73.09614 | 1355 ft | 137 kts | 359° |
| 2026-04-23 03:21 | -41.49068 | -73.09580 | 1149 ft | 137 kts | 0° |
| 2026-04-23 03:21 | -41.48118 | -73.09546 | 950 ft | 136 kts | 1° |
| 2026-04-23 03:21 | -41.47184 | -73.09513 | 757 ft | 136 kts | 2° |
| 2026-04-23 03:21 | -41.46235 | -73.09479 | 573 ft | 137 kts | 2° |
| 2026-04-23 03:22 | -41.45288 | -73.09455 | 392 ft | 137 kts | 2° |
| 2026-04-23 03:22 | -41.44362 | -73.09410 | 286 ft | 121 kts | 1° |
| 2026-04-23 03:22 | -41.43820 | -73.09392 | 295 ft | 34 kts | 1° |
| 2026-04-23 03:22 | -41.43726 | -73.09439 | 298 ft | 9 kts | 279° |
| 2026-04-23 03:23 | -41.43725 | -73.09468 | 298 ft | 0 kts | 272° |
| 2026-04-23 03:23 | -41.43724 | -73.09471 | 298 ft | 1 kts | 272° |
| 2026-04-23 03:23 | -41.43724 | -73.09484 | 299 ft | 2 kts | 272° |
| 2026-04-23 03:24 | -41.43723 | -73.09508 | 300 ft | 3 kts | 272° |
| 2026-04-23 03:24 | -41.43722 | -73.09547 | 300 ft | 5 kts | 272° |
| 2026-04-23 03:24 | -41.43708 | -73.09600 | 302 ft | 7 kts | 330° |
| 2026-04-23 03:24 | -41.43650 | -73.09605 | 303 ft | 10 kts | 0° |
| 2026-04-23 03:25 | -41.43572 | -73.09605 | 301 ft | 13 kts | 1° |
| 2026-04-23 03:25 | -41.43475 | -73.09602 | 303 ft | 15 kts | 1° |
| 2026-04-23 03:25 | -41.43385 | -73.09598 | 301 ft | 11 kts | 2° |
| 2026-04-23 03:25 | -41.43326 | -73.09596 | 301 ft | 7 kts | 2° |
| 2026-04-23 03:26 | -41.43272 | -73.09599 | 301 ft | 8 kts | 333° |
| 2026-04-23 03:26 | -41.43258 | -73.09671 | 303 ft | 9 kts | 271° |
| 2026-04-23 03:26 | -41.43257 | -73.09744 | 303 ft | 2 kts | 272° |
| 2026-04-23 03:26 | -41.43257 | -73.09747 | 303 ft | 0 kts | 272° |
| 2026-04-23 03:30 | -41.43257 | -73.09748 | 303 ft | 0 kts | 272° |